sensor_id;sensor_type;location;lat;lon;timestamp;temperature;humidity
35962;DHT22;22044;48.298;10.008;2023-05-10T00:00:24;13.10;99.90
35962;DHT22;22044;48.298;10.008;2023-05-10T00:03:13;13.00;99.90
35962;DHT22;22044;48.298;10.008;2023-05-10T00:05:59;12.90;99.90
35962;DHT22;22044;48.298;10.008;2023-05-10T00:08:45;12.90;99.90
35962;DHT22;22044;48.298;10.008;2023-05-10T00:11:31;12.90;99.90
35962;DHT22;22044;48.298;10.008;2023-05-10T00:14:16;12.90;99.90
35962;DHT22;22044;48.298;10.008;2023-05-10T00:17:02;12.90;99.90
35962;DHT22;22044;48.298;10.008;2023-05-10T00:19:49;12.90;99.90
35962;DHT22;22044;48.298;10.008;2023-05-10T00:22:35;12.90;99.90
35962;DHT22;22044;48.298;10.008;2023-05-10T00:25:20;12.90;99.90
35962;DHT22;22044;48.298;10.008;2023-05-10T00:28:07;12.90;99.90
35962;DHT22;22044;48.298;10.008;2023-05-10T00:30:52;12.80;99.90
35962;DHT22;22044;48.298;10.008;2023-05-10T00:33:38;12.90;99.90
35962;DHT22;22044;48.298;10.008;2023-05-10T00:36:25;12.90;99.90
35962;DHT22;22044;48.298;10.008;2023-05-10T00:39:12;13.00;99.90
35962;DHT22;22044;48.298;10.008;2023-05-10T00:41:57;13.00;99.90
35962;DHT22;22044;48.298;10.008;2023-05-10T00:44:44;12.90;99.90
35962;DHT22;22044;48.298;10.008;2023-05-10T00:47:31;12.90;99.90
35962;DHT22;22044;48.298;10.008;2023-05-10T00:50:17;12.90;99.90
35962;DHT22;22044;48.298;10.008;2023-05-10T00:53:04;12.80;99.90
35962;DHT22;22044;48.298;10.008;2023-05-10T00:55:50;12.90;99.90
35962;DHT22;22044;48.298;10.008;2023-05-10T00:58:36;12.80;99.90
35962;DHT22;22044;48.298;10.008;2023-05-10T01:01:22;12.80;99.90
35962;DHT22;22044;48.298;10.008;2023-05-10T01:04:10;12.80;99.90
35962;DHT22;22044;48.298;10.008;2023-05-10T01:06:57;12.70;99.90
35962;DHT22;22044;48.298;10.008;2023-05-10T01:09:44;12.70;99.90
35962;DHT22;22044;48.298;10.008;2023-05-10T01:12:29;12.70;99.90
35962;DHT22;22044;48.298;10.008;2023-05-10T01:15:16;12.70;99.90
35962;DHT22;22044;48.298;10.008;2023-05-10T01:18:03;12.70;99.90
35962;DHT22;22044;48.298;10.008;2023-05-10T01:20:53;12.60;99.90
35962;DHT22;22044;48.298;10.008;2023-05-10T01:33:59;12.30;99.90
35962;DHT22;22044;48.298;10.008;2023-05-10T01:36:50;12.30;99.90
35962;DHT22;22044;48.298;10.008;2023-05-10T01:39:41;12.20;99.90
35962;DHT22;22044;48.298;10.008;2023-05-10T01:42:33;12.20;99.90
35962;DHT22;22044;48.298;10.008;2023-05-10T01:45:27;12.20;99.90
35962;DHT22;22044;48.298;10.008;2023-05-10T01:48:15;12.10;99.90
35962;DHT22;22044;48.298;10.008;2023-05-10T01:51:03;12.10;99.90
35962;DHT22;22044;48.298;10.008;2023-05-10T01:53:53;12.10;99.90
35962;DHT22;22044;48.298;10.008;2023-05-10T01:56:40;12.10;99.90
35962;DHT22;22044;48.298;10.008;2023-05-10T01:59:30;12.00;99.90
35962;DHT22;22044;48.298;10.008;2023-05-10T02:02:21;12.00;99.90
35962;DHT22;22044;48.298;10.008;2023-05-10T02:05:07;12.10;99.90
35962;DHT22;22044;48.298;10.008;2023-05-10T02:07:55;12.10;99.90
35962;DHT22;22044;48.298;10.008;2023-05-10T02:10:42;12.20;99.90
35962;DHT22;22044;48.298;10.008;2023-05-10T02:13:29;12.30;99.90
35962;DHT22;22044;48.298;10.008;2023-05-10T02:16:17;12.40;99.90
35962;DHT22;22044;48.298;10.008;2023-05-10T02:19:03;12.40;99.90
35962;DHT22;22044;48.298;10.008;2023-05-10T02:21:50;12.40;99.90
35962;DHT22;22044;48.298;10.008;2023-05-10T02:24:38;12.40;99.90
35962;DHT22;22044;48.298;10.008;2023-05-10T02:27:26;12.50;99.90
35962;DHT22;22044;48.298;10.008;2023-05-10T02:30:13;12.50;99.90
35962;DHT22;22044;48.298;10.008;2023-05-10T02:32:59;12.50;99.90
35962;DHT22;22044;48.298;10.008;2023-05-10T02:35:46;12.50;99.90
35962;DHT22;22044;48.298;10.008;2023-05-10T02:38:33;12.50;99.90
35962;DHT22;22044;48.298;10.008;2023-05-10T02:41:22;12.50;99.90
35962;DHT22;22044;48.298;10.008;2023-05-10T02:44:09;12.50;99.90
35962;DHT22;22044;48.298;10.008;2023-05-10T02:46:54;12.40;99.90
35962;DHT22;22044;48.298;10.008;2023-05-10T02:49:41;12.40;99.90
35962;DHT22;22044;48.298;10.008;2023-05-10T02:52:30;12.40;99.90
35962;DHT22;22044;48.298;10.008;2023-05-10T02:55:23;12.40;99.90
35962;DHT22;22044;48.298;10.008;2023-05-10T02:58:12;12.40;99.90
35962;DHT22;22044;48.298;10.008;2023-05-10T03:00:58;12.40;99.90
35962;DHT22;22044;48.298;10.008;2023-05-10T03:03:45;12.40;99.90
35962;DHT22;22044;48.298;10.008;2023-05-10T03:06:30;12.50;99.90
35962;DHT22;22044;48.298;10.008;2023-05-10T03:09:16;12.40;99.90
35962;DHT22;22044;48.298;10.008;2023-05-10T03:12:07;12.40;99.90
35962;DHT22;22044;48.298;10.008;2023-05-10T03:15:00;12.40;99.90
35962;DHT22;22044;48.298;10.008;2023-05-10T03:17:54;12.50;99.90
35962;DHT22;22044;48.298;10.008;2023-05-10T03:20:42;12.40;99.90
35962;DHT22;22044;48.298;10.008;2023-05-10T03:23:34;12.40;99.90
35962;DHT22;22044;48.298;10.008;2023-05-10T03:26:24;12.40;99.90
35962;DHT22;22044;48.298;10.008;2023-05-10T03:29:17;12.40;99.90
35962;DHT22;22044;48.298;10.008;2023-05-10T03:32:04;12.40;99.90
35962;DHT22;22044;48.298;10.008;2023-05-10T03:34:50;12.40;99.90
35962;DHT22;22044;48.298;10.008;2023-05-10T03:37:36;12.30;99.90
35962;DHT22;22044;48.298;10.008;2023-05-10T03:40:22;12.30;99.90
35962;DHT22;22044;48.298;10.008;2023-05-10T03:43:08;12.30;99.90
35962;DHT22;22044;48.298;10.008;2023-05-10T03:45:53;12.20;99.90
35962;DHT22;22044;48.298;10.008;2023-05-10T03:48:40;12.30;99.90
35962;DHT22;22044;48.298;10.008;2023-05-10T03:51:26;12.20;99.90
35962;DHT22;22044;48.298;10.008;2023-05-10T03:54:12;12.20;99.90
35962;DHT22;22044;48.298;10.008;2023-05-10T03:56:59;12.20;99.90
35962;DHT22;22044;48.298;10.008;2023-05-10T03:59:45;12.20;99.90
35962;DHT22;22044;48.298;10.008;2023-05-10T04:02:31;12.20;99.90
35962;DHT22;22044;48.298;10.008;2023-05-10T04:05:19;12.20;99.90
35962;DHT22;22044;48.298;10.008;2023-05-10T04:08:05;12.10;99.90
35962;DHT22;22044;48.298;10.008;2023-05-10T04:10:51;12.10;99.90
35962;DHT22;22044;48.298;10.008;2023-05-10T04:13:37;12.10;99.90
35962;DHT22;22044;48.298;10.008;2023-05-10T04:16:22;12.10;99.90
35962;DHT22;22044;48.298;10.008;2023-05-10T04:19:08;12.10;99.90
35962;DHT22;22044;48.298;10.008;2023-05-10T04:21:55;12.20;99.90
35962;DHT22;22044;48.298;10.008;2023-05-10T04:24:40;12.20;99.90
35962;DHT22;22044;48.298;10.008;2023-05-10T04:27:26;12.10;99.90
35962;DHT22;22044;48.298;10.008;2023-05-10T04:30:12;12.10;99.90
35962;DHT22;22044;48.298;10.008;2023-05-10T04:32:57;12.10;99.90
35962;DHT22;22044;48.298;10.008;2023-05-10T04:35:43;12.00;99.90
35962;DHT22;22044;48.298;10.008;2023-05-10T04:38:30;12.00;99.90
35962;DHT22;22044;48.298;10.008;2023-05-10T04:41:16;12.10;99.90
35962;DHT22;22044;48.298;10.008;2023-05-10T04:44:02;12.00;99.90
35962;DHT22;22044;48.298;10.008;2023-05-10T04:46:47;12.00;99.90
35962;DHT22;22044;48.298;10.008;2023-05-10T04:49:33;12.10;99.90
35962;DHT22;22044;48.298;10.008;2023-05-10T04:52:18;12.10;99.90
35962;DHT22;22044;48.298;10.008;2023-05-10T04:55:06;12.00;99.90
35962;DHT22;22044;48.298;10.008;2023-05-10T04:57:54;12.10;99.90
35962;DHT22;22044;48.298;10.008;2023-05-10T05:00:41;12.00;99.90
35962;DHT22;22044;48.298;10.008;2023-05-10T05:03:26;12.00;99.90
35962;DHT22;22044;48.298;10.008;2023-05-10T05:06:12;12.00;99.90
35962;DHT22;22044;48.298;10.008;2023-05-10T05:09:00;12.10;99.90
35962;DHT22;22044;48.298;10.008;2023-05-10T05:11:47;12.10;99.90
35962;DHT22;22044;48.298;10.008;2023-05-10T05:14:32;12.10;99.90
35962;DHT22;22044;48.298;10.008;2023-05-10T05:17:18;12.10;99.90
35962;DHT22;22044;48.298;10.008;2023-05-10T05:20:05;12.00;99.90
35962;DHT22;22044;48.298;10.008;2023-05-10T05:22:51;12.00;99.90
35962;DHT22;22044;48.298;10.008;2023-05-10T05:25:36;12.10;99.90
35962;DHT22;22044;48.298;10.008;2023-05-10T05:28:23;12.20;99.90
35962;DHT22;22044;48.298;10.008;2023-05-10T05:31:09;12.20;99.90
35962;DHT22;22044;48.298;10.008;2023-05-10T05:33:55;12.20;99.90
35962;DHT22;22044;48.298;10.008;2023-05-10T05:36:40;12.20;99.90
35962;DHT22;22044;48.298;10.008;2023-05-10T05:39:26;12.20;99.90
35962;DHT22;22044;48.298;10.008;2023-05-10T05:42:12;12.20;99.90
35962;DHT22;22044;48.298;10.008;2023-05-10T05:45:00;12.20;99.90
35962;DHT22;22044;48.298;10.008;2023-05-10T05:47:45;12.20;99.90
35962;DHT22;22044;48.298;10.008;2023-05-10T05:50:31;12.20;99.90
35962;DHT22;22044;48.298;10.008;2023-05-10T05:53:16;12.30;99.90
35962;DHT22;22044;48.298;10.008;2023-05-10T05:56:02;12.20;99.90
35962;DHT22;22044;48.298;10.008;2023-05-10T05:58:48;12.20;99.90
35962;DHT22;22044;48.298;10.008;2023-05-10T06:01:35;12.20;99.90
35962;DHT22;22044;48.298;10.008;2023-05-10T06:04:21;12.20;99.90
35962;DHT22;22044;48.298;10.008;2023-05-10T06:07:06;12.30;99.90
35962;DHT22;22044;48.298;10.008;2023-05-10T06:09:52;12.30;99.90
35962;DHT22;22044;48.298;10.008;2023-05-10T06:12:38;12.30;99.90
35962;DHT22;22044;48.298;10.008;2023-05-10T06:15:23;12.40;99.90
35962;DHT22;22044;48.298;10.008;2023-05-10T06:18:10;12.40;99.90
35962;DHT22;22044;48.298;10.008;2023-05-10T06:20:56;12.50;99.90
35962;DHT22;22044;48.298;10.008;2023-05-10T06:23:41;12.50;99.90
35962;DHT22;22044;48.298;10.008;2023-05-10T06:26:27;12.50;99.90
35962;DHT22;22044;48.298;10.008;2023-05-10T06:29:13;12.50;99.90
35962;DHT22;22044;48.298;10.008;2023-05-10T06:31:59;12.50;99.90
35962;DHT22;22044;48.298;10.008;2023-05-10T06:34:46;12.50;99.90
35962;DHT22;22044;48.298;10.008;2023-05-10T06:37:31;12.60;99.90
35962;DHT22;22044;48.298;10.008;2023-05-10T06:40:17;12.70;99.90
35962;DHT22;22044;48.298;10.008;2023-05-10T06:43:03;12.70;99.90
35962;DHT22;22044;48.298;10.008;2023-05-10T06:45:49;12.80;99.90
35962;DHT22;22044;48.298;10.008;2023-05-10T06:48:35;12.80;99.90
35962;DHT22;22044;48.298;10.008;2023-05-10T06:51:22;12.70;99.90
35962;DHT22;22044;48.298;10.008;2023-05-10T06:54:07;12.70;99.90
35962;DHT22;22044;48.298;10.008;2023-05-10T06:56:53;12.80;99.90
35962;DHT22;22044;48.298;10.008;2023-05-10T06:59:39;12.80;99.90
35962;DHT22;22044;48.298;10.008;2023-05-10T07:02:24;12.70;99.90
35962;DHT22;22044;48.298;10.008;2023-05-10T07:05:10;12.70;99.90
35962;DHT22;22044;48.298;10.008;2023-05-10T07:07:57;12.80;99.90
35962;DHT22;22044;48.298;10.008;2023-05-10T07:10:42;12.80;99.90
35962;DHT22;22044;48.298;10.008;2023-05-10T07:13:28;12.80;99.90
35962;DHT22;22044;48.298;10.008;2023-05-10T07:16:14;12.80;99.90
35962;DHT22;22044;48.298;10.008;2023-05-10T07:18:59;12.80;99.90
35962;DHT22;22044;48.298;10.008;2023-05-10T07:21:46;12.90;99.90
35962;DHT22;22044;48.298;10.008;2023-05-10T07:24:33;13.00;99.90
35962;DHT22;22044;48.298;10.008;2023-05-10T07:27:19;13.10;99.90
35962;DHT22;22044;48.298;10.008;2023-05-10T07:30:05;13.20;99.90
35962;DHT22;22044;48.298;10.008;2023-05-10T07:32:51;13.20;99.90
35962;DHT22;22044;48.298;10.008;2023-05-10T07:35:37;13.20;99.90
35962;DHT22;22044;48.298;10.008;2023-05-10T07:38:23;13.20;99.90
35962;DHT22;22044;48.298;10.008;2023-05-10T07:41:11;13.20;99.90
35962;DHT22;22044;48.298;10.008;2023-05-10T07:43:57;13.30;99.90
35962;DHT22;22044;48.298;10.008;2023-05-10T07:46:42;13.30;99.90
35962;DHT22;22044;48.298;10.008;2023-05-10T07:49:28;13.30;99.90
35962;DHT22;22044;48.298;10.008;2023-05-10T07:52:14;13.30;99.90
35962;DHT22;22044;48.298;10.008;2023-05-10T07:54:59;13.30;99.90
35962;DHT22;22044;48.298;10.008;2023-05-10T07:57:46;13.30;99.90
35962;DHT22;22044;48.298;10.008;2023-05-10T08:00:32;13.40;99.90
35962;DHT22;22044;48.298;10.008;2023-05-10T08:03:19;13.30;99.90
35962;DHT22;22044;48.298;10.008;2023-05-10T08:06:05;13.30;99.90
35962;DHT22;22044;48.298;10.008;2023-05-10T08:08:51;13.40;99.90
35962;DHT22;22044;48.298;10.008;2023-05-10T08:11:38;13.40;99.90
35962;DHT22;22044;48.298;10.008;2023-05-10T08:14:28;13.50;99.90
35962;DHT22;22044;48.298;10.008;2023-05-10T08:17:13;13.50;99.90
35962;DHT22;22044;48.298;10.008;2023-05-10T08:19:59;13.50;99.90
35962;DHT22;22044;48.298;10.008;2023-05-10T08:22:45;13.60;99.90
35962;DHT22;22044;48.298;10.008;2023-05-10T08:25:31;13.60;99.90
35962;DHT22;22044;48.298;10.008;2023-05-10T08:28:17;13.70;99.90
35962;DHT22;22044;48.298;10.008;2023-05-10T08:31:04;13.80;99.90
35962;DHT22;22044;48.298;10.008;2023-05-10T08:33:50;13.80;99.90
35962;DHT22;22044;48.298;10.008;2023-05-10T08:36:36;13.80;99.90
35962;DHT22;22044;48.298;10.008;2023-05-10T08:39:22;13.90;99.90
35962;DHT22;22044;48.298;10.008;2023-05-10T08:42:09;13.90;99.90
35962;DHT22;22044;48.298;10.008;2023-05-10T08:44:55;13.90;99.90
35962;DHT22;22044;48.298;10.008;2023-05-10T08:47:44;13.90;99.90
35962;DHT22;22044;48.298;10.008;2023-05-10T08:50:30;13.90;99.90
35962;DHT22;22044;48.298;10.008;2023-05-10T08:53:16;14.00;99.90
35962;DHT22;22044;48.298;10.008;2023-05-10T08:56:02;14.00;99.90
35962;DHT22;22044;48.298;10.008;2023-05-10T08:58:48;14.10;99.90
35962;DHT22;22044;48.298;10.008;2023-05-10T09:01:35;14.20;99.90
35962;DHT22;22044;48.298;10.008;2023-05-10T09:04:23;14.20;99.90
35962;DHT22;22044;48.298;10.008;2023-05-10T09:07:08;14.20;99.90
35962;DHT22;22044;48.298;10.008;2023-05-10T09:09:56;14.20;99.90
35962;DHT22;22044;48.298;10.008;2023-05-10T09:12:42;14.30;99.90
35962;DHT22;22044;48.298;10.008;2023-05-10T09:15:29;14.30;99.90
35962;DHT22;22044;48.298;10.008;2023-05-10T09:18:15;14.20;99.90
35962;DHT22;22044;48.298;10.008;2023-05-10T09:21:02;14.30;99.90
35962;DHT22;22044;48.298;10.008;2023-05-10T09:23:48;14.30;99.90
35962;DHT22;22044;48.298;10.008;2023-05-10T09:26:34;14.30;99.90
35962;DHT22;22044;48.298;10.008;2023-05-10T09:29:20;14.30;99.90
35962;DHT22;22044;48.298;10.008;2023-05-10T09:32:06;14.30;99.90
35962;DHT22;22044;48.298;10.008;2023-05-10T09:34:51;14.40;99.90
35962;DHT22;22044;48.298;10.008;2023-05-10T09:37:41;14.50;99.90
35962;DHT22;22044;48.298;10.008;2023-05-10T09:40:28;14.50;99.90
35962;DHT22;22044;48.298;10.008;2023-05-10T09:43:13;14.50;99.90
35962;DHT22;22044;48.298;10.008;2023-05-10T09:45:59;14.40;99.90
35962;DHT22;22044;48.298;10.008;2023-05-10T09:48:46;14.50;99.90
35962;DHT22;22044;48.298;10.008;2023-05-10T09:51:32;14.50;99.90
35962;DHT22;22044;48.298;10.008;2023-05-10T09:54:21;14.60;99.90
35962;DHT22;22044;48.298;10.008;2023-05-10T09:57:20;14.50;99.90
35962;DHT22;22044;48.298;10.008;2023-05-10T10:00:07;14.60;99.90
35962;DHT22;22044;48.298;10.008;2023-05-10T10:03:01;14.50;99.90
35962;DHT22;22044;48.298;10.008;2023-05-10T10:05:48;14.50;99.90
35962;DHT22;22044;48.298;10.008;2023-05-10T10:08:35;14.60;99.90
35962;DHT22;22044;48.298;10.008;2023-05-10T10:11:23;14.70;99.90
35962;DHT22;22044;48.298;10.008;2023-05-10T10:14:09;14.70;99.90
35962;DHT22;22044;48.298;10.008;2023-05-10T10:16:56;14.80;99.90
35962;DHT22;22044;48.298;10.008;2023-05-10T10:19:42;14.60;99.90
35962;DHT22;22044;48.298;10.008;2023-05-10T10:22:27;14.50;99.90
35962;DHT22;22044;48.298;10.008;2023-05-10T10:25:16;14.60;99.90
35962;DHT22;22044;48.298;10.008;2023-05-10T10:28:18;14.50;99.90
35962;DHT22;22044;48.298;10.008;2023-05-10T10:31:19;14.60;99.90
35962;DHT22;22044;48.298;10.008;2023-05-10T10:34:09;14.70;99.90
35962;DHT22;22044;48.298;10.008;2023-05-10T10:36:56;14.80;99.90
35962;DHT22;22044;48.298;10.008;2023-05-10T10:39:42;14.90;99.90
35962;DHT22;22044;48.298;10.008;2023-05-10T10:42:47;14.90;99.90
35962;DHT22;22044;48.298;10.008;2023-05-10T10:45:39;14.90;99.90
35962;DHT22;22044;48.298;10.008;2023-05-10T10:48:25;14.80;99.90
35962;DHT22;22044;48.298;10.008;2023-05-10T10:51:13;14.90;99.90
35962;DHT22;22044;48.298;10.008;2023-05-10T10:54:08;14.90;99.90
35962;DHT22;22044;48.298;10.008;2023-05-10T10:57:14;14.80;99.90
35962;DHT22;22044;48.298;10.008;2023-05-10T11:00:29;14.70;99.90
35962;DHT22;22044;48.298;10.008;2023-05-10T11:03:16;14.70;99.90
35962;DHT22;22044;48.298;10.008;2023-05-10T11:06:03;14.50;99.90
35962;DHT22;22044;48.298;10.008;2023-05-10T11:08:49;14.50;99.90
35962;DHT22;22044;48.298;10.008;2023-05-10T11:11:48;14.70;99.90
35962;DHT22;22044;48.298;10.008;2023-05-10T11:14:34;14.60;99.90
35962;DHT22;22044;48.298;10.008;2023-05-10T11:17:24;14.50;99.90
35962;DHT22;22044;48.298;10.008;2023-05-10T11:20:18;14.40;99.90
35962;DHT22;22044;48.298;10.008;2023-05-10T11:23:12;14.40;99.90
35962;DHT22;22044;48.298;10.008;2023-05-10T11:26:00;14.50;99.90
35962;DHT22;22044;48.298;10.008;2023-05-10T11:28:46;14.40;99.90
35962;DHT22;22044;48.298;10.008;2023-05-10T11:31:34;14.30;99.90
35962;DHT22;22044;48.298;10.008;2023-05-10T11:34:26;14.40;99.90
35962;DHT22;22044;48.298;10.008;2023-05-10T11:37:13;14.40;99.90
35962;DHT22;22044;48.298;10.008;2023-05-10T11:39:59;14.40;99.90
35962;DHT22;22044;48.298;10.008;2023-05-10T11:42:45;14.40;99.90
35962;DHT22;22044;48.298;10.008;2023-05-10T11:45:32;14.40;99.90
35962;DHT22;22044;48.298;10.008;2023-05-10T11:48:17;14.30;99.90
35962;DHT22;22044;48.298;10.008;2023-05-10T11:51:07;14.20;99.90
35962;DHT22;22044;48.298;10.008;2023-05-10T11:53:55;14.10;99.90
35962;DHT22;22044;48.298;10.008;2023-05-10T11:56:44;14.10;99.90
35962;DHT22;22044;48.298;10.008;2023-05-10T11:59:29;14.00;99.90
35962;DHT22;22044;48.298;10.008;2023-05-10T12:02:16;13.90;99.90
35962;DHT22;22044;48.298;10.008;2023-05-10T12:05:02;13.90;99.90
35962;DHT22;22044;48.298;10.008;2023-05-10T12:07:49;13.90;99.90
35962;DHT22;22044;48.298;10.008;2023-05-10T12:10:36;13.90;99.90
35962;DHT22;22044;48.298;10.008;2023-05-10T12:13:22;13.80;99.90
35962;DHT22;22044;48.298;10.008;2023-05-10T12:16:19;13.90;99.90
35962;DHT22;22044;48.298;10.008;2023-05-10T12:19:05;13.90;99.90
35962;DHT22;22044;48.298;10.008;2023-05-10T12:21:51;13.80;99.90
35962;DHT22;22044;48.298;10.008;2023-05-10T12:24:37;13.80;99.90
35962;DHT22;22044;48.298;10.008;2023-05-10T12:27:24;13.80;99.90
35962;DHT22;22044;48.298;10.008;2023-05-10T12:30:11;13.60;99.90
35962;DHT22;22044;48.298;10.008;2023-05-10T12:33:00;13.60;99.90
35962;DHT22;22044;48.298;10.008;2023-05-10T12:35:48;13.70;99.90
35962;DHT22;22044;48.298;10.008;2023-05-10T12:38:35;13.70;99.90
35962;DHT22;22044;48.298;10.008;2023-05-10T12:41:22;13.70;99.90
35962;DHT22;22044;48.298;10.008;2023-05-10T12:44:10;13.70;99.90
35962;DHT22;22044;48.298;10.008;2023-05-10T12:46:56;13.50;99.90
35962;DHT22;22044;48.298;10.008;2023-05-10T12:49:42;13.40;99.90
35962;DHT22;22044;48.298;10.008;2023-05-10T12:52:28;13.40;99.90
35962;DHT22;22044;48.298;10.008;2023-05-10T12:55:14;13.60;99.90
35962;DHT22;22044;48.298;10.008;2023-05-10T12:57:59;13.60;99.90
35962;DHT22;22044;48.298;10.008;2023-05-10T13:00:46;13.30;99.90
35962;DHT22;22044;48.298;10.008;2023-05-10T13:03:33;13.00;99.90
35962;DHT22;22044;48.298;10.008;2023-05-10T13:06:19;13.00;99.90
35962;DHT22;22044;48.298;10.008;2023-05-10T13:09:04;13.00;99.90
35962;DHT22;22044;48.298;10.008;2023-05-10T13:11:50;13.10;99.90
35962;DHT22;22044;48.298;10.008;2023-05-10T13:14:37;12.90;99.90
35962;DHT22;22044;48.298;10.008;2023-05-10T13:17:26;13.00;99.90
35962;DHT22;22044;48.298;10.008;2023-05-10T13:20:12;13.00;99.90
35962;DHT22;22044;48.298;10.008;2023-05-10T13:22:58;12.90;99.90
35962;DHT22;22044;48.298;10.008;2023-05-10T13:25:43;12.80;99.90
35962;DHT22;22044;48.298;10.008;2023-05-10T13:28:29;13.10;99.90
35962;DHT22;22044;48.298;10.008;2023-05-10T13:31:15;13.30;99.90
35962;DHT22;22044;48.298;10.008;2023-05-10T13:34:03;13.40;99.90
35962;DHT22;22044;48.298;10.008;2023-05-10T13:36:49;13.40;99.90
35962;DHT22;22044;48.298;10.008;2023-05-10T13:39:35;13.10;99.90
35962;DHT22;22044;48.298;10.008;2023-05-10T13:42:22;12.90;99.90
35962;DHT22;22044;48.298;10.008;2023-05-10T13:45:08;12.70;99.90
35962;DHT22;22044;48.298;10.008;2023-05-10T13:47:53;12.40;99.90
35962;DHT22;22044;48.298;10.008;2023-05-10T13:50:40;12.20;99.90
35962;DHT22;22044;48.298;10.008;2023-05-10T13:53:26;12.20;99.90
35962;DHT22;22044;48.298;10.008;2023-05-10T13:56:12;12.20;99.90
35962;DHT22;22044;48.298;10.008;2023-05-10T13:58:57;12.20;99.90
35962;DHT22;22044;48.298;10.008;2023-05-10T14:01:43;12.40;99.90
35962;DHT22;22044;48.298;10.008;2023-05-10T14:04:29;12.50;99.90
35962;DHT22;22044;48.298;10.008;2023-05-10T14:07:17;12.60;99.90
35962;DHT22;22044;48.298;10.008;2023-05-10T14:10:03;12.60;99.90
35962;DHT22;22044;48.298;10.008;2023-05-10T14:12:50;12.70;99.90
35962;DHT22;22044;48.298;10.008;2023-05-10T14:15:35;12.80;99.90
35962;DHT22;22044;48.298;10.008;2023-05-10T14:18:21;12.80;99.90
35962;DHT22;22044;48.298;10.008;2023-05-10T14:21:07;12.80;99.90
35962;DHT22;22044;48.298;10.008;2023-05-10T14:23:53;12.80;99.90
35962;DHT22;22044;48.298;10.008;2023-05-10T14:26:39;12.90;99.90
35962;DHT22;22044;48.298;10.008;2023-05-10T14:29:25;12.80;99.90
35962;DHT22;22044;48.298;10.008;2023-05-10T14:32:11;12.60;99.90
35962;DHT22;22044;48.298;10.008;2023-05-10T14:34:57;12.60;99.90
35962;DHT22;22044;48.298;10.008;2023-05-10T14:37:42;12.70;99.90
35962;DHT22;22044;48.298;10.008;2023-05-10T14:40:29;12.60;99.90
35962;DHT22;22044;48.298;10.008;2023-05-10T14:43:14;12.30;99.90
35962;DHT22;22044;48.298;10.008;2023-05-10T14:46:00;12.20;99.90
35962;DHT22;22044;48.298;10.008;2023-05-10T14:48:45;12.20;99.90
35962;DHT22;22044;48.298;10.008;2023-05-10T14:51:31;12.00;99.90
35962;DHT22;22044;48.298;10.008;2023-05-10T14:54:17;12.00;99.90
35962;DHT22;22044;48.298;10.008;2023-05-10T14:57:04;12.10;99.90
35962;DHT22;22044;48.298;10.008;2023-05-10T14:59:49;12.10;99.90
35962;DHT22;22044;48.298;10.008;2023-05-10T15:02:35;12.10;99.90
35962;DHT22;22044;48.298;10.008;2023-05-10T15:05:20;12.20;99.90
35962;DHT22;22044;48.298;10.008;2023-05-10T15:08:06;12.10;99.90
35962;DHT22;22044;48.298;10.008;2023-05-10T15:10:52;12.30;99.90
35962;DHT22;22044;48.298;10.008;2023-05-10T15:13:41;12.20;99.90
35962;DHT22;22044;48.298;10.008;2023-05-10T15:16:26;12.10;99.90
35962;DHT22;22044;48.298;10.008;2023-05-10T15:19:11;12.00;99.90
35962;DHT22;22044;48.298;10.008;2023-05-10T15:21:57;12.10;99.90
35962;DHT22;22044;48.298;10.008;2023-05-10T15:24:42;12.10;99.90
35962;DHT22;22044;48.298;10.008;2023-05-10T15:27:28;12.10;99.90
35962;DHT22;22044;48.298;10.008;2023-05-10T15:30:15;12.10;99.90
35962;DHT22;22044;48.298;10.008;2023-05-10T15:33:01;12.00;99.90
35962;DHT22;22044;48.298;10.008;2023-05-10T15:35:47;12.10;99.90
35962;DHT22;22044;48.298;10.008;2023-05-10T15:38:32;12.00;99.90
35962;DHT22;22044;48.298;10.008;2023-05-10T15:41:18;12.00;99.90
35962;DHT22;22044;48.298;10.008;2023-05-10T15:44:04;12.00;99.90
35962;DHT22;22044;48.298;10.008;2023-05-10T15:46:50;11.90;99.90
35962;DHT22;22044;48.298;10.008;2023-05-10T15:49:36;11.90;99.90
35962;DHT22;22044;48.298;10.008;2023-05-10T15:52:22;11.80;99.90
35962;DHT22;22044;48.298;10.008;2023-05-10T15:55:08;11.80;99.90
35962;DHT22;22044;48.298;10.008;2023-05-10T15:57:55;11.80;99.90
35962;DHT22;22044;48.298;10.008;2023-05-10T16:00:42;11.80;99.90
35962;DHT22;22044;48.298;10.008;2023-05-10T16:03:29;11.80;99.90
35962;DHT22;22044;48.298;10.008;2023-05-10T16:06:15;11.80;99.90
35962;DHT22;22044;48.298;10.008;2023-05-10T16:09:00;11.90;99.90
35962;DHT22;22044;48.298;10.008;2023-05-10T16:11:46;11.70;99.90
35962;DHT22;22044;48.298;10.008;2023-05-10T16:14:32;11.80;99.90
35962;DHT22;22044;48.298;10.008;2023-05-10T16:17:18;11.80;99.90
35962;DHT22;22044;48.298;10.008;2023-05-10T16:20:06;11.70;99.90
35962;DHT22;22044;48.298;10.008;2023-05-10T16:22:51;11.60;99.90
35962;DHT22;22044;48.298;10.008;2023-05-10T16:25:37;11.50;99.90
35962;DHT22;22044;48.298;10.008;2023-05-10T16:28:23;11.40;99.90
35962;DHT22;22044;48.298;10.008;2023-05-10T16:31:08;11.40;99.90
35962;DHT22;22044;48.298;10.008;2023-05-10T16:33:54;11.40;99.90
35962;DHT22;22044;48.298;10.008;2023-05-10T16:36:41;11.50;99.90
35962;DHT22;22044;48.298;10.008;2023-05-10T16:39:26;11.50;99.90
35962;DHT22;22044;48.298;10.008;2023-05-10T16:42:12;11.40;99.90
35962;DHT22;22044;48.298;10.008;2023-05-10T16:44:58;11.40;99.90
35962;DHT22;22044;48.298;10.008;2023-05-10T16:47:51;11.40;99.90
35962;DHT22;22044;48.298;10.008;2023-05-10T16:50:42;11.40;99.90
35962;DHT22;22044;48.298;10.008;2023-05-10T16:53:29;11.40;99.90
35962;DHT22;22044;48.298;10.008;2023-05-10T16:56:15;11.30;99.90
35962;DHT22;22044;48.298;10.008;2023-05-10T16:59:01;11.30;99.90
35962;DHT22;22044;48.298;10.008;2023-05-10T17:01:47;11.30;99.90
35962;DHT22;22044;48.298;10.008;2023-05-10T17:04:33;11.30;99.90
35962;DHT22;22044;48.298;10.008;2023-05-10T17:07:19;11.30;99.90
35962;DHT22;22044;48.298;10.008;2023-05-10T17:10:07;11.30;99.90
35962;DHT22;22044;48.298;10.008;2023-05-10T17:12:53;11.20;99.90
35962;DHT22;22044;48.298;10.008;2023-05-10T17:15:38;11.20;99.90
35962;DHT22;22044;48.298;10.008;2023-05-10T17:18:24;11.10;99.90
35962;DHT22;22044;48.298;10.008;2023-05-10T17:21:10;11.10;99.90
35962;DHT22;22044;48.298;10.008;2023-05-10T17:23:55;11.00;99.90
35962;DHT22;22044;48.298;10.008;2023-05-10T17:26:43;10.90;99.90